Time;durP1;ratioP1;P1;durP2;ratioP2;P2;SDS_P1;SDS_P2;PMS_P1;PMS_P2;Temp;Humidity;BMP_temperature;BMP_pressure;BME280_temperature;BME280_humidity;BME280_pressure;Samples;Min_cycle;Max_cycle;Signal;HPM_P1;HPM_P2
2021/09/24 00:02:09;;;;;;;2.60;1.40;;;19.90;99.90;;;;;;5034293;28;20799;-74
2021/09/24 00:04:36;;;;;;;3.70;1.90;;;19.90;99.90;;;;;;5034372;28;20260;-74
2021/09/24 00:07:03;;;;;;;4.53;2.00;;;19.90;99.90;;;;;;5016655;28;20568;-74
2021/09/24 00:09:29;;;;;;;4.93;2.30;;;19.90;99.90;;;;;;5034029;28;20583;-73
2021/09/24 00:11:54;;;;;;;3.23;1.90;;;19.90;99.90;;;;;;5034178;28;20603;-74
2021/09/24 00:14:20;;;;;;;3.20;1.83;;;19.90;99.90;;;;;;5034335;28;20637;-74
2021/09/24 00:16:46;;;;;;;5.20;2.20;;;19.90;99.90;;;;;;5034311;28;20181;-74
2021/09/24 00:19:12;;;;;;;7.03;2.30;;;19.90;99.90;;;;;;5033751;28;20193;-74
2021/09/24 00:21:37;;;;;;;4.37;1.93;;;19.90;99.90;;;;;;5016083;28;20193;-74
2021/09/24 00:24:03;;;;;;;3.97;1.90;;;19.90;99.90;;;;;;5034039;28;20301;-74
2021/09/24 00:26:30;;;;;;;6.37;2.00;;;19.90;99.90;;;;;;5033930;28;20162;-74
2021/09/24 00:28:57;;;;;;;5.17;2.03;;;19.90;99.90;;;;;;5015385;28;20664;-74
2021/09/24 00:31:24;;;;;;;4.40;1.80;;;19.80;99.90;;;;;;5033811;28;20579;-74
2021/09/24 00:33:49;;;;;;;6.93;2.17;;;19.80;99.90;;;;;;5033902;28;20667;-74
2021/09/24 00:36:15;;;;;;;2.47;1.60;;;19.90;99.90;;;;;;4999772;28;20581;-74
2021/09/24 00:38:41;;;;;;;4.50;1.83;;;19.90;99.90;;;;;;5033388;28;20267;-74
2021/09/24 00:41:08;;;;;;;5.00;2.53;;;19.90;99.90;;;;;;5033808;28;20533;-74
2021/09/24 00:43:34;;;;;;;4.17;1.67;;;19.90;99.90;;;;;;5016138;28;20174;-74
2021/09/24 00:46:00;;;;;;;3.10;1.37;;;19.90;99.90;;;;;;5033887;28;20686;-73
2021/09/24 00:48:27;;;;;;;2.43;1.73;;;19.80;99.90;;;;;;5033008;28;20534;-74
2021/09/24 00:50:52;;;;;;;5.80;1.60;;;19.80;99.90;;;;;;5015967;28;20580;-74
2021/09/24 00:53:18;;;;;;;10.93;2.97;;;19.80;99.90;;;;;;5033657;28;20689;-74
2021/09/24 00:55:46;;;;;;;5.10;1.93;;;19.80;99.90;;;;;;5033779;28;20169;-74
2021/09/24 00:58:12;;;;;;;2.53;1.87;;;19.80;99.90;;;;;;5015639;28;20624;-74
2021/09/24 01:00:37;;;;;;;5.33;1.93;;;19.80;99.90;;;;;;5015575;28;21154;-74
2021/09/24 01:03:03;;;;;;;2.60;1.80;;;19.80;99.90;;;;;;5015598;28;20256;-74
2021/09/24 01:05:30;;;;;;;5.30;1.70;;;19.80;99.90;;;;;;5015560;28;20174;-74
2021/09/24 01:07:55;;;;;;;3.63;2.03;;;19.80;99.90;;;;;;5033112;28;20561;-74
2021/09/24 01:10:22;;;;;;;5.20;2.60;;;19.80;99.90;;;;;;5032881;28;20913;-74
2021/09/24 01:12:48;;;;;;;2.90;1.67;;;19.80;99.90;;;;;;5033011;28;20181;-74
2021/09/24 01:15:17;;;;;;;8.30;1.90;;;19.80;99.90;;;;;;5033273;28;20567;-74
2021/09/24 01:17:43;;;;;;;3.90;2.13;;;19.80;99.90;;;;;;5033072;28;21147;-74
2021/09/24 01:20:12;;;;;;;3.30;1.80;;;19.80;99.90;;;;;;5032338;28;21041;-74
2021/09/24 01:22:38;;;;;;;3.20;2.30;;;19.80;99.90;;;;;;5032935;28;20611;-73
2021/09/24 01:25:06;;;;;;;6.67;2.40;;;19.80;99.90;;;;;;5032780;28;20568;-74
2021/09/24 01:27:33;;;;;;;5.20;2.57;;;19.80;99.90;;;;;;5032923;28;20568;-74
2021/09/24 01:29:59;;;;;;;7.53;3.07;;;19.70;99.90;;;;;;5032424;28;20659;-74
2021/09/24 01:32:24;;;;;;;3.27;1.90;;;19.70;99.90;;;;;;5032827;28;20719;-74
2021/09/24 01:34:50;;;;;;;4.50;2.23;;;19.70;99.90;;;;;;5032418;28;20588;-73
2021/09/24 01:37:16;;;;;;;7.47;2.87;;;19.70;99.90;;;;;;5032661;28;20180;-74
2021/09/24 01:39:42;;;;;;;3.80;2.30;;;19.70;99.90;;;;;;5014605;28;20201;-74
2021/09/24 01:42:08;;;;;;;6.53;2.53;;;19.70;99.90;;;;;;5014872;28;20593;-74
2021/09/24 01:44:34;;;;;;;5.10;2.30;;;19.70;99.90;;;;;;5032458;28;20166;-74
2021/09/24 01:47:00;;;;;;;5.70;2.57;;;19.70;99.90;;;;;;5032616;28;20557;-74
2021/09/24 01:49:26;;;;;;;4.37;2.30;;;19.70;99.90;;;;;;5031862;28;20635;-74
2021/09/24 01:51:52;;;;;;;3.03;2.20;;;19.70;99.90;;;;;;5032234;28;20765;-74
2021/09/24 01:54:20;;;;;;;4.87;2.47;;;19.70;99.90;;;;;;5032341;28;20173;-74
2021/09/24 01:56:45;;;;;;;4.37;2.10;;;19.70;99.90;;;;;;5032225;28;20581;-73
2021/09/24 01:59:11;;;;;;;4.43;2.43;;;19.70;99.90;;;;;;5031783;28;20627;-73
2021/09/24 02:01:37;;;;;;;6.03;2.27;;;19.70;99.90;;;;;;4998155;28;20675;-74
2021/09/24 02:04:03;;;;;;;3.80;2.47;;;19.70;99.90;;;;;;5032345;28;20527;-73
2021/09/24 02:06:29;;;;;;;3.90;2.50;;;19.70;99.90;;;;;;5031997;28;20172;-73
2021/09/24 02:08:55;;;;;;;3.30;2.10;;;19.70;99.90;;;;;;5014159;28;20584;-73
2021/09/24 02:11:21;;;;;;;3.30;2.07;;;19.70;99.90;;;;;;5031813;28;20938;-73
2021/09/24 02:13:47;;;;;;;4.10;2.57;;;19.70;99.90;;;;;;5014599;28;20178;-73
2021/09/24 02:16:13;;;;;;;12.03;3.20;;;19.70;99.90;;;;;;5031815;28;20578;-73
2021/09/24 02:18:39;;;;;;;5.00;3.27;;;19.70;99.90;;;;;;5031538;28;20639;-73
2021/09/24 02:21:05;;;;;;;3.67;2.83;;;19.70;99.90;;;;;;5014196;28;20665;-73
2021/09/24 02:23:31;;;;;;;6.23;3.23;;;19.70;99.90;;;;;;5031748;28;20628;-74
2021/09/24 02:25:58;;;;;;;5.37;2.63;;;19.70;99.90;;;;;;5031690;28;20178;-74
2021/09/24 02:28:24;;;;;;;5.30;2.50;;;19.60;99.90;;;;;;5031505;28;20575;-74
2021/09/24 02:30:50;;;;;;;3.47;2.70;;;19.60;99.90;;;;;;4997697;28;20572;-74
2021/09/24 02:33:15;;;;;;;10.80;3.10;;;19.60;99.90;;;;;;5014205;28;20600;-74
2021/09/24 02:35:41;;;;;;;2.83;2.53;;;19.60;99.90;;;;;;5013990;28;20622;-73
2021/09/24 02:38:07;;;;;;;5.80;4.03;;;19.60;99.90;;;;;;5031719;28;20209;-74
2021/09/24 02:40:32;;;;;;;5.37;3.30;;;19.60;99.90;;;;;;5031198;28;20231;-73
2021/09/24 02:42:58;;;;;;;4.97;3.50;;;19.60;99.90;;;;;;5013865;28;20200;-73
2021/09/24 02:45:24;;;;;;;5.10;3.27;;;19.60;99.90;;;;;;5031772;28;20526;-73
2021/09/24 02:47:50;;;;;;;3.60;3.07;;;19.60;99.90;;;;;;5030903;28;20173;-74
2021/09/24 02:50:15;;;;;;;6.30;3.90;;;19.60;99.90;;;;;;5013598;28;20561;-73
2021/09/24 02:52:41;;;;;;;6.00;4.07;;;19.60;99.90;;;;;;5054242;22;20300;-81
2021/09/24 02:55:08;;;;;;;5.83;5.10;;;19.60;99.90;;;;;;5014236;28;20251;-81
2021/09/24 02:57:33;;;;;;;8.60;4.00;;;19.60;99.90;;;;;;5032108;28;20170;-81
2021/09/24 02:59:59;;;;;;;4.43;3.47;;;19.60;99.90;;;;;;5016385;28;20723;-81
2021/09/24 03:02:25;;;;;;;6.20;4.30;;;19.60;99.90;;;;;;5031542;28;20718;-82
2021/09/24 03:04:51;;;;;;;5.60;3.20;;;19.60;99.90;;;;;;5031790;28;20572;-81
2021/09/24 03:07:17;;;;;;;4.60;3.00;;;19.60;99.90;;;;;;5014377;28;20232;-81
2021/09/24 03:09:42;;;;;;;5.80;3.70;;;19.60;99.90;;;;;;5013853;28;20173;-81
2021/09/24 03:12:08;;;;;;;5.33;3.50;;;19.60;99.90;;;;;;5013836;28;20608;-80
2021/09/24 03:14:34;;;;;;;9.47;4.47;;;19.50;99.90;;;;;;5031665;28;20169;-80
2021/09/24 03:17:00;;;;;;;8.43;5.07;;;19.60;99.90;;;;;;5031407;28;20626;-80
2021/09/24 03:19:26;;;;;;;7.50;3.97;;;19.60;99.90;;;;;;5031142;28;20616;-80
2021/09/24 03:21:52;;;;;;;8.83;4.43;;;19.60;99.90;;;;;;5013738;28;21142;-80
2021/09/24 03:24:21;;;;;;;5.60;3.77;;;19.60;99.90;;;;;;4997320;28;20576;-80
2021/09/24 03:26:46;;;;;;;7.57;5.20;;;19.60;99.90;;;;;;5031532;28;20572;-80
2021/09/24 03:29:12;;;;;;;4.53;4.13;;;19.60;99.90;;;;;;4996962;28;20591;-81
2021/09/24 03:31:40;;;;;;;6.47;5.23;;;19.50;99.90;;;;;;5031530;28;20169;-81
2021/09/24 03:34:07;;;;;;;8.40;5.60;;;19.50;99.90;;;;;;5032802;28;20564;-81
2021/09/24 03:36:34;;;;;;;9.43;6.93;;;19.50;99.90;;;;;;5019862;28;20933;-80
2021/09/24 03:39:04;;;;;;;7.93;6.43;;;19.50;99.90;;;;;;5031590;28;20954;-79
2021/09/24 03:41:30;;;;;;;8.93;6.40;;;19.50;99.90;;;;;;5014722;28;20951;-80
2021/09/24 03:43:56;;;;;;;8.30;6.13;;;19.50;99.90;;;;;;5032513;28;20596;-79
2021/09/24 03:46:21;;;;;;;8.87;6.20;;;19.50;99.90;;;;;;5032938;28;20172;-80
2021/09/24 03:48:47;;;;;;;7.93;6.77;;;19.50;99.90;;;;;;5032795;28;20166;-80
2021/09/24 03:51:13;;;;;;;7.67;6.70;;;19.50;99.90;;;;;;5032879;28;20647;-80
2021/09/24 03:53:39;;;;;;;7.87;7.17;;;19.50;99.90;;;;;;5032580;28;20608;-80
2021/09/24 03:56:04;;;;;;;8.70;7.90;;;19.40;99.90;;;;;;5032438;28;20173;-80
2021/09/24 03:58:31;;;;;;;8.60;6.40;;;19.40;99.90;;;;;;5014688;28;20197;-79
2021/09/24 04:00:57;;;;;;;8.83;6.80;;;19.40;99.90;;;;;;5036045;28;20616;-79
2021/09/24 04:03:23;;;;;;;10.80;7.53;;;19.40;99.90;;;;;;5036468;28;20679;-78
2021/09/24 04:05:51;;;;;;;9.53;6.80;;;19.40;99.90;;;;;;5038715;28;20197;-80
2021/09/24 04:08:17;;;;;;;9.43;6.97;;;19.40;99.90;;;;;;5039449;28;20177;-79
2021/09/24 04:10:43;;;;;;;7.77;6.97;;;19.40;99.90;;;;;;5039624;28;20602;-80
2021/09/24 04:13:08;;;;;;;8.50;7.40;;;19.40;99.90;;;;;;5028393;28;20197;-80
2021/09/24 04:15:34;;;;;;;10.60;8.70;;;19.40;99.90;;;;;;5040349;28;20216;-80
2021/09/24 04:18:00;;;;;;;9.87;8.90;;;19.40;99.90;;;;;;5036991;28;20235;-81
2021/09/24 04:20:26;;;;;;;11.03;9.00;;;19.40;99.90;;;;;;5034243;28;20940;-81
2021/09/24 04:22:52;;;;;;;11.30;9.13;;;19.40;99.90;;;;;;5016091;28;20606;-81
2021/09/24 04:25:17;;;;;;;12.50;8.80;;;19.40;99.90;;;;;;5034216;28;20557;-81
2021/09/24 04:27:43;;;;;;;9.63;8.57;;;19.40;99.90;;;;;;5016730;28;20234;-81
2021/09/24 04:30:09;;;;;;;11.23;9.60;;;19.40;99.90;;;;;;5034220;28;20169;-81
2021/09/24 04:32:35;;;;;;;9.43;8.53;;;19.40;99.90;;;;;;5035296;28;20193;-81
2021/09/24 04:35:01;;;;;;;11.87;9.63;;;19.40;99.90;;;;;;5034419;28;20614;-81
2021/09/24 04:37:27;;;;;;;10.23;8.43;;;19.40;99.90;;;;;;5034236;28;20576;-81
2021/09/24 04:39:53;;;;;;;14.93;10.20;;;19.40;99.90;;;;;;5033732;28;21175;-82
2021/09/24 04:42:19;;;;;;;13.00;10.40;;;19.30;99.90;;;;;;4999964;28;20627;-82
2021/09/24 04:44:45;;;;;;;10.00;9.00;;;19.30;99.90;;;;;;5033895;28;20170;-82
2021/09/24 04:47:10;;;;;;;9.27;8.47;;;19.30;99.90;;;;;;5033927;28;20170;-80
2021/09/24 04:49:37;;;;;;;11.20;9.67;;;19.30;99.90;;;;;;5039264;28;20169;-81
2021/09/24 04:52:03;;;;;;;11.27;9.40;;;19.30;99.90;;;;;;5033541;28;20612;-80
2021/09/24 04:54:29;;;;;;;12.07;8.67;;;19.30;99.90;;;;;;5033822;28;20173;-80
2021/09/24 04:56:55;;;;;;;11.03;9.10;;;19.30;99.90;;;;;;5033450;28;20581;-82
2021/09/24 04:59:21;;;;;;;9.90;8.90;;;19.30;99.90;;;;;;5033017;28;20201;-81
2021/09/24 05:01:46;;;;;;;9.10;8.30;;;19.30;99.90;;;;;;5015593;28;20572;-81
2021/09/24 05:04:12;;;;;;;10.20;9.17;;;19.30;99.90;;;;;;5015907;28;20247;-81
2021/09/24 05:06:38;;;;;;;11.00;8.83;;;19.30;99.90;;;;;;5033256;28;20596;-81
2021/09/24 05:09:04;;;;;;;11.80;9.03;;;19.30;99.90;;;;;;5032938;28;20169;-81
2021/09/24 05:11:29;;;;;;;8.93;7.93;;;19.30;99.90;;;;;;5033109;28;20231;-80
2021/09/24 05:13:55;;;;;;;10.47;9.23;;;19.30;99.90;;;;;;5033672;28;21163;-81
2021/09/24 05:16:21;;;;;;;12.30;8.60;;;19.30;99.90;;;;;;5014975;28;20178;-81
2021/09/24 05:18:47;;;;;;;11.93;10.70;;;19.30;99.90;;;;;;5032936;28;20658;-81
2021/09/24 05:21:12;;;;;;;12.83;9.30;;;19.30;99.90;;;;;;5015459;28;20185;-81
2021/09/24 05:23:39;;;;;;;10.30;8.50;;;19.30;99.90;;;;;;5015242;28;20189;-81
2021/09/24 05:26:05;;;;;;;11.23;10.03;;;19.30;99.90;;;;;;5037608;28;20576;-79
2021/09/24 05:28:31;;;;;;;10.83;9.77;;;19.30;99.90;;;;;;5035212;28;20269;-79
2021/09/24 05:30:57;;;;;;;12.23;10.80;;;19.20;99.90;;;;;;5015754;28;21229;-80
2021/09/24 05:33:22;;;;;;;11.03;9.50;;;19.30;99.90;;;;;;5032894;28;20223;-80
2021/09/24 05:35:48;;;;;;;14.87;10.00;;;19.30;99.90;;;;;;5033016;28;20637;-80
2021/09/24 05:38:14;;;;;;;12.73;9.60;;;19.20;99.90;;;;;;5014984;28;20676;-80
2021/09/24 05:40:40;;;;;;;11.47;10.30;;;19.20;99.90;;;;;;5015030;28;20598;-80
2021/09/24 05:43:06;;;;;;;13.63;10.03;;;19.30;99.90;;;;;;5034705;28;20189;-80
2021/09/24 05:45:32;;;;;;;11.80;10.73;;;19.20;99.90;;;;;;5017929;28;20580;-81
2021/09/24 05:47:57;;;;;;;14.77;12.00;;;19.20;99.90;;;;;;5035291;28;20594;-80
2021/09/24 05:50:26;;;;;;;11.83;10.60;;;19.30;99.90;;;;;;5045744;28;20170;-81
2021/09/24 05:52:58;;;;;;;12.70;11.60;;;19.30;99.90;;;;;;5049474;28;20783;-80
2021/09/24 05:55:24;;;;;;;11.10;10.10;;;19.30;99.90;;;;;;5042338;28;20910;-80
2021/09/24 05:57:52;;;;;;;13.10;11.90;;;19.30;99.90;;;;;;4998953;28;20604;-80
2021/09/24 06:00:19;;;;;;;12.20;11.10;;;19.30;99.90;;;;;;5038937;28;20699;-79
2021/09/24 06:02:47;;;;;;;12.90;11.60;;;19.30;99.90;;;;;;5055092;28;20956;-79
2021/09/24 06:05:14;;;;;;;13.57;11.57;;;19.30;99.90;;;;;;5055533;28;20963;-78
2021/09/24 06:07:43;;;;;;;12.47;11.20;;;19.30;99.90;;;;;;5052298;28;20596;-78
2021/09/24 06:10:10;;;;;;;13.37;12.07;;;19.30;99.90;;;;;;5017496;28;20575;-78
2021/09/24 06:12:37;;;;;;;13.93;11.27;;;19.30;99.90;;;;;;5034551;28;20710;-79
2021/09/24 06:15:04;;;;;;;12.80;11.53;;;19.30;99.90;;;;;;5052950;28;20583;-77
2021/09/24 06:17:30;;;;;;;11.73;10.53;;;19.30;99.90;;;;;;5035974;28;20564;-78
2021/09/24 06:19:57;;;;;;;13.47;12.10;;;19.40;99.90;;;;;;5033986;28;20673;-78
2021/09/24 06:22:24;;;;;;;12.47;11.13;;;19.40;99.90;;;;;;5052649;28;21007;-79
2021/09/24 06:24:51;;;;;;;12.00;10.70;;;19.40;99.90;;;;;;5052122;28;21145;-78
2021/09/24 06:27:17;;;;;;;13.73;11.10;;;19.50;99.90;;;;;;5033793;28;20936;-78
2021/09/24 06:29:50;;;;;;;14.77;12.10;;;19.50;99.90;;;;;;5051674;28;20591;-77
2021/09/24 06:32:17;;;;;;;12.10;10.80;;;19.50;99.90;;;;;;5034150;28;20638;-78
2021/09/24 06:34:44;;;;;;;13.47;12.17;;;19.60;99.90;;;;;;5051832;28;20571;-78
2021/09/24 06:37:11;;;;;;;16.60;11.93;;;19.70;99.90;;;;;;5034257;28;20613;-78
2021/09/24 06:39:37;;;;;;;14.53;11.83;;;19.70;99.90;;;;;;5053059;28;20969;-78
2021/09/24 06:42:03;;;;;;;15.60;13.40;;;19.80;99.90;;;;;;5055114;28;20591;-78
2021/09/24 06:44:29;;;;;;;12.77;10.83;;;19.90;99.90;;;;;;5051659;28;20579;-78
2021/09/24 06:46:55;;;;;;;17.13;11.60;;;20.00;99.90;;;;;;5051620;28;20576;-78
2021/09/24 06:49:22;;;;;;;16.77;12.03;;;20.10;99.90;;;;;;5051173;28;20926;-76
2021/09/24 06:51:57;;;;;;;14.97;10.80;;;20.10;99.90;;;;;;5051348;28;20231;-77
2021/09/24 06:54:24;;;;;;;14.40;12.23;;;20.20;99.90;;;;;;5051743;28;20662;-78
2021/09/24 06:56:50;;;;;;;12.70;11.30;;;20.20;99.90;;;;;;5017347;28;21195;-77
2021/09/24 06:59:16;;;;;;;15.50;10.40;;;20.30;99.90;;;;;;5026018;28;20723;-79
2021/09/24 07:01:43;;;;;;;12.70;9.30;;;20.40;99.90;;;;;;5031648;28;20209;-78
2021/09/24 07:04:08;;;;;;;10.77;9.67;;;20.40;99.90;;;;;;5033528;28;20174;-78
2021/09/24 07:06:34;;;;;;;11.10;9.33;;;20.40;99.90;;;;;;5030250;28;20926;-80
2021/09/24 07:09:01;;;;;;;18.57;12.10;;;20.40;99.90;;;;;;5031856;28;20201;-79
2021/09/24 07:11:27;;;;;;;14.77;12.40;;;20.40;99.90;;;;;;5013919;28;20268;-78
2021/09/24 07:14:01;;;;;;;12.23;11.07;;;20.40;99.90;;;;;;5030125;28;20608;-79
2021/09/24 07:17:16;;;;;;;14.50;10.90;;;20.40;99.90;;;;;;5034805;28;20576;-80
2021/09/24 07:20:00;;;;;;;11.90;10.70;;;20.50;99.90;;;;;;5014707;28;20719;-79
2021/09/24 07:22:42;;;;;;;13.93;10.73;;;20.50;99.90;;;;;;5031258;28;20612;-80
2021/09/24 07:25:24;;;;;;;11.27;9.77;;;20.60;99.90;;;;;;5030476;28;20688;-79
2021/09/24 07:28:02;;;;;;;12.20;9.77;;;20.70;99.90;;;;;;5028750;28;20592;-78
2021/09/24 07:31:02;;;;;;;10.70;9.60;;;20.80;99.90;;;;;;5031363;28;20568;-79
2021/09/24 07:33:36;;;;;;;9.70;8.80;;;20.90;99.90;;;;;;5031141;28;20596;-78
2021/09/24 07:36:16;;;;;;;10.90;9.60;;;21.10;99.90;;;;;;5030060;28;21159;-78
2021/09/24 07:38:50;;;;;;;10.80;9.30;;;21.20;99.90;;;;;;5014620;28;20643;-78
2021/09/24 07:41:24;;;;;;;10.80;8.63;;;21.50;99.90;;;;;;5034838;28;20675;-78
2021/09/24 07:44:04;;;;;;;10.27;8.90;;;21.80;99.90;;;;;;5033813;28;20694;-78
2021/09/24 07:46:31;;;;;;;9.13;8.20;;;21.90;99.90;;;;;;5034681;28;20653;-78
2021/09/24 07:49:00;;;;;;;8.60;7.70;;;22.10;99.90;;;;;;5034304;28;20630;-78
2021/09/24 07:51:53;;;;;;;11.73;8.43;;;22.20;99.90;;;;;;5024471;28;21167;-78
2021/09/24 07:54:46;;;;;;;11.53;8.57;;;22.30;99.90;;;;;;5036073;28;20591;-77
2021/09/24 07:57:18;;;;;;;7.70;6.00;;;22.30;99.90;;;;;;5032724;28;20738;-78
2021/09/24 07:59:46;;;;;;;7.83;5.90;;;22.40;99.90;;;;;;5037706;28;20739;-78
2021/09/24 08:02:23;;;;;;;6.90;5.50;;;22.40;99.90;;;;;;5033766;28;20673;-77
2021/09/24 08:04:57;;;;;;;6.40;5.73;;;22.50;99.90;;;;;;5034053;28;20572;-76
2021/09/24 08:07:41;;;;;;;6.73;5.80;;;22.50;99.90;;;;;;5033953;28;20619;-75
2021/09/24 08:10:12;;;;;;;11.60;5.60;;;22.50;99.90;;;;;;5033604;28;20573;-75
2021/09/24 08:12:43;;;;;;;8.30;5.37;;;22.50;99.90;;;;;;5033926;28;20603;-75
2021/09/24 08:15:10;;;;;;;5.97;4.30;;;22.60;99.90;;;;;;5033650;28;20684;-76
2021/09/24 08:17:44;;;;;;;7.40;4.10;;;22.50;99.90;;;;;;5015597;28;20601;-76
2021/09/24 08:20:15;;;;;;;5.50;4.60;;;22.50;99.90;;;;;;5033462;28;20630;-76
2021/09/24 08:23:04;;;;;;;4.60;3.40;;;22.50;99.90;;;;;;5014462;28;20601;-76
2021/09/24 08:25:32;;;;;;;5.97;4.40;;;22.40;99.90;;;;;;5014351;28;20573;-76
2021/09/24 08:28:07;;;;;;;6.50;4.80;;;22.30;99.90;;;;;;5014582;28;20577;-75
2021/09/24 08:30:39;;;;;;;5.37;3.60;;;22.30;99.90;;;;;;5000279;28;20619;-76
2021/09/24 08:33:08;;;;;;;6.10;4.73;;;22.30;99.90;;;;;;5018460;28;20605;-75
2021/09/24 08:35:39;;;;;;;6.60;5.37;;;22.20;99.90;;;;;;5021796;28;20593;-77
2021/09/24 08:38:13;;;;;;;6.27;5.77;;;22.20;99.90;;;;;;5034715;28;20583;-77
2021/09/24 08:40:44;;;;;;;7.00;6.30;;;22.20;99.90;;;;;;5037678;28;20675;-76
2021/09/24 08:43:13;;;;;;;7.13;6.33;;;22.20;99.90;;;;;;5039679;28;20608;-77
2021/09/24 08:45:48;;;;;;;7.57;6.10;;;22.10;99.90;;;;;;5038817;28;20571;-76
2021/09/24 08:48:20;;;;;;;9.30;6.97;;;22.10;99.90;;;;;;5044761;28;20575;-76
2021/09/24 08:50:56;;;;;;;8.13;7.43;;;22.10;99.90;;;;;;5035265;28;20982;-77
2021/09/24 08:53:26;;;;;;;9.17;8.27;;;22.10;99.90;;;;;;5018190;28;20624;-79
2021/09/24 08:55:52;;;;;;;8.27;7.47;;;22.20;99.90;;;;;;5033216;28;20578;-80
2021/09/24 08:58:31;;;;;;;9.40;7.77;;;22.20;99.90;;;;;;5014801;28;20900;-79
2021/09/24 09:00:58;;;;;;;7.47;6.83;;;22.40;99.90;;;;;;5030214;28;20751;-80
2021/09/24 09:03:35;;;;;;;7.90;7.30;;;22.80;99.90;;;;;;5032910;28;20608;-79
2021/09/24 09:06:03;;;;;;;7.90;7.20;;;23.20;99.90;;;;;;5033797;28;20568;-80
2021/09/24 09:08:33;;;;;;;10.03;7.10;;;23.80;99.90;;;;;;5019989;28;21120;-80
2021/09/24 09:11:01;;;;;;;6.93;6.27;;;24.30;99.90;;;;;;5033287;28;20577;-80
2021/09/24 09:13:34;;;;;;;7.80;7.10;;;24.70;99.90;;;;;;5014992;28;20615;-79
2021/09/24 09:16:06;;;;;;;7.40;6.63;;;25.30;99.90;;;;;;5033429;28;20588;-80
2021/09/24 09:18:34;;;;;;;8.20;7.10;;;25.70;99.90;;;;;;4997992;28;21230;-79
2021/09/24 09:21:02;;;;;;;8.63;7.90;;;26.00;99.90;;;;;;5015139;28;21128;-79
2021/09/24 09:23:30;;;;;;;7.07;6.47;;;26.50;99.90;;;;;;4998522;28;21369;-79
2021/09/24 09:25:58;;;;;;;6.87;6.27;;;27.10;99.90;;;;;;5015032;28;20588;-80
2021/09/24 09:28:33;;;;;;;8.03;7.33;;;27.60;99.90;;;;;;5032342;28;20667;-80
2021/09/24 09:31:00;;;;;;;6.93;6.33;;;28.00;99.90;;;;;;5032535;28;20682;-79
2021/09/24 09:33:27;;;;;;;7.70;7.00;;;28.20;99.90;;;;;;5032548;28;20971;-79
2021/09/24 09:35:54;;;;;;;9.27;7.47;;;28.30;99.90;;;;;;4998278;28;20611;-80
2021/09/24 09:38:23;;;;;;;8.03;6.47;;;28.30;99.90;;;;;;5032466;28;20985;-80
2021/09/24 09:40:57;;;;;;;5.77;5.27;;;28.40;99.90;;;;;;4998072;28;20577;-79
2021/09/24 09:43:31;;;;;;;9.00;5.43;;;28.50;99.90;;;;;;5014575;28;21130;-80
2021/09/24 09:45:58;;;;;;;5.83;5.30;;;28.70;99.90;;;;;;5000751;28;20574;-79
2021/09/24 09:48:24;;;;;;;5.00;4.50;;;28.90;99.90;;;;;;5014747;28;20569;-80
2021/09/24 09:50:50;;;;;;;5.30;4.80;;;29.10;99.90;;;;;;5032038;28;21157;-80
2021/09/24 09:53:17;;;;;;;4.47;4.07;;;29.40;99.90;;;;;;4997988;28;20661;-79
2021/09/24 09:55:49;;;;;;;4.20;3.90;;;29.60;99.90;;;;;;4998184;28;20510;-80
2021/09/24 09:58:15;;;;;;;4.33;3.93;;;29.60;99.90;;;;;;5030621;28;20583;-80
2021/09/24 10:00:58;;;;;;;7.50;4.70;;;29.90;99.90;;;;;;5014019;28;20608;-80
2021/09/24 10:03:36;;;;;;;4.73;3.17;;;30.40;99.90;;;;;;5013635;28;20612;-80
2021/09/24 10:06:04;;;;;;;4.07;3.67;;;30.80;99.40;;;;;;5031902;28;20572;-81
2021/09/24 10:08:33;;;;;;;4.63;4.23;;;31.20;99.20;;;;;;5010587;28;20584;-81
2021/09/24 10:11:03;;;;;;;4.67;4.20;;;31.60;98.20;;;;;;5012182;28;20618;-78
2021/09/24 10:13:35;;;;;;;4.53;2.97;;;32.00;96.80;;;;;;4994520;28;20641;-79
2021/09/24 10:16:02;;;;;;;3.67;3.07;;;32.30;96.30;;;;;;4994759;28;20597;-79
2021/09/24 10:18:29;;;;;;;3.30;2.90;;;32.70;96.20;;;;;;4993936;28;20604;-79
2021/09/24 10:20:55;;;;;;;4.10;2.87;;;33.00;95.50;;;;;;4995906;28;21027;-80
2021/09/24 10:23:21;;;;;;;3.83;3.10;;;33.40;94.90;;;;;;4995693;28;20611;-80
2021/09/24 10:25:54;;;;;;;4.37;3.00;;;33.60;93.80;;;;;;4994849;28;20184;-80
2021/09/24 10:28:20;;;;;;;3.13;2.13;;;33.60;91.60;;;;;;4994961;28;20211;-80
2021/09/24 10:30:46;;;;;;;3.20;2.90;;;33.70;91.30;;;;;;4994676;28;20675;-80
2021/09/24 10:33:13;;;;;;;3.40;2.80;;;33.70;90.40;;;;;;5012171;28;20611;-80
2021/09/24 10:35:55;;;;;;;3.40;2.80;;;33.70;90.00;;;;;;4994869;28;20632;-80
2021/09/24 10:38:23;;;;;;;6.10;2.50;;;33.60;87.30;;;;;;5011651;28;20575;-80
2021/09/24 10:41:04;;;;;;;5.07;3.67;;;33.40;85.40;;;;;;4994864;28;20930;-81
2021/09/24 10:43:57;;;;;;;6.73;3.83;;;33.00;78.50;;;;;;5020558;28;20621;-81
2021/09/24 10:46:25;;;;;;;4.70;2.90;;;32.30;82.00;;;;;;5027919;28;20589;-81
2021/09/24 10:49:12;;;;;;;5.93;3.60;;;31.70;80.30;;;;;;4981288;28;20584;-80
2021/09/24 10:51:44;;;;;;;3.80;2.30;;;31.20;80.30;;;;;;4997787;28;20577;-81
2021/09/24 10:54:21;;;;;;;3.87;2.70;;;30.70;81.10;;;;;;5014037;28;20572;-80
2021/09/24 10:57:05;;;;;;;3.63;1.97;;;30.20;81.00;;;;;;5014528;28;20591;-81
2021/09/24 10:59:33;;;;;;;3.33;2.67;;;29.80;81.40;;;;;;5016272;28;20625;-80
2021/09/24 11:02:00;;;;;;;6.60;2.93;;;29.40;81.50;;;;;;5031251;28;20620;-80
2021/09/24 11:04:43;;;;;;;4.03;2.90;;;28.90;81.50;;;;;;5031228;28;20564;-80
2021/09/24 11:07:10;;;;;;;4.50;3.27;;;28.50;82.50;;;;;;5013783;28;20584;-80
2021/09/24 11:09:51;;;;;;;4.90;2.47;;;28.20;83.80;;;;;;5013321;28;20608;-80
2021/09/24 11:12:17;;;;;;;4.63;2.83;;;28.10;84.90;;;;;;4997555;28;20608;-80
2021/09/24 11:14:43;;;;;;;4.03;2.47;;;28.00;86.00;;;;;;5034826;28;21241;-81
2021/09/24 11:17:32;;;;;;;4.27;2.37;;;28.20;88.40;;;;;;5035450;28;20682;-81
2021/09/24 11:19:58;;;;;;;3.20;2.13;;;28.50;89.00;;;;;;5017198;28;20636;-81
2021/09/24 11:22:39;;;;;;;2.80;2.13;;;28.80;88.90;;;;;;5017568;28;20634;-81
2021/09/24 11:25:10;;;;;;;4.57;3.33;;;29.00;87.30;;;;;;5035628;28;20162;-80
2021/09/24 11:27:40;;;;;;;2.83;2.43;;;29.30;88.00;;;;;;5017359;28;20573;-80
2021/09/24 11:30:06;;;;;;;2.97;2.13;;;29.60;87.70;;;;;;5017196;28;20585;-80
2021/09/24 11:32:43;;;;;;;3.43;2.37;;;29.90;87.80;;;;;;5017176;28;20773;-80
2021/09/24 11:35:20;;;;;;;2.83;1.50;;;30.20;87.00;;;;;;5004273;28;20184;-80
2021/09/24 11:37:46;;;;;;;4.60;1.77;;;30.50;86.60;;;;;;5017610;28;20576;-80
2021/09/24 11:40:19;;;;;;;3.23;2.03;;;30.70;85.30;;;;;;5034600;28;20694;-79
2021/09/24 11:42:49;;;;;;;5.10;1.93;;;30.90;84.20;;;;;;5017065;28;20669;-80
2021/09/24 11:45:18;;;;;;;4.83;1.83;;;30.90;82.50;;;;;;5035159;28;20612;-80
2021/09/24 11:47:45;;;;;;;2.40;1.80;;;31.00;81.20;;;;;;5036928;28;20576;-80
2021/09/24 11:50:19;;;;;;;2.53;1.50;;;31.00;80.90;;;;;;5039748;28;20584;-81
2021/09/24 11:52:49;;;;;;;3.37;2.00;;;31.00;80.00;;;;;;5038360;28;20699;-80
2021/09/24 11:55:23;;;;;;;8.30;1.97;;;30.90;79.30;;;;;;5020633;28;20583;-81
2021/09/24 11:58:14;;;;;;;4.53;2.80;;;30.70;78.00;;;;;;5035225;28;20574;-80
2021/09/24 12:00:44;;;;;;;5.67;3.13;;;30.40;76.40;;;;;;5000650;28;20975;-80
2021/09/24 12:03:17;;;;;;;3.80;2.63;;;30.00;76.30;;;;;;5034625;28;20600;-81
2021/09/24 12:05:56;;;;;;;4.83;2.50;;;29.60;76.10;;;;;;5034605;28;20667;-81
2021/09/24 12:08:25;;;;;;;3.07;2.10;;;29.20;76.90;;;;;;5016769;28;20998;-81
2021/09/24 12:11:00;;;;;;;3.80;2.60;;;28.90;77.40;;;;;;5034117;28;20936;-80
2021/09/24 12:13:57;;;;;;;5.37;1.97;;;28.60;77.70;;;;;;5021075;28;20647;-81
2021/09/24 12:16:28;;;;;;;4.70;2.10;;;28.30;78.40;;;;;;5000696;28;20600;-80
2021/09/24 12:18:58;;;;;;;5.07;2.07;;;28.00;78.50;;;;;;5033916;28;20620;-80
2021/09/24 12:21:42;;;;;;;5.37;2.90;;;27.80;78.90;;;;;;4999791;28;21054;-81
2021/09/24 12:24:14;;;;;;;4.00;1.93;;;27.60;79.40;;;;;;5016459;28;20665;-80
2021/09/24 12:26:50;;;;;;;4.23;2.30;;;27.40;79.90;;;;;;5015625;28;20620;-80
2021/09/24 12:29:24;;;;;;;4.60;1.97;;;27.20;80.20;;;;;;5016064;28;20584;-81
2021/09/24 12:31:57;;;;;;;4.40;2.30;;;27.00;80.40;;;;;;5016074;28;20974;-81
2021/09/24 12:34:46;;;;;;;4.00;2.60;;;26.80;80.70;;;;;;4999937;28;20572;-81
2021/09/24 12:37:16;;;;;;;3.70;2.17;;;26.60;81.60;;;;;;5016109;28;20935;-82
2021/09/24 12:39:53;;;;;;;2.60;1.80;;;26.40;81.60;;;;;;5016173;28;20659;-81
2021/09/24 12:42:19;;;;;;;3.63;2.20;;;26.30;82.40;;;;;;5016145;28;20616;-79
2021/09/24 12:44:54;;;;;;;3.97;2.50;;;26.20;83.00;;;;;;5034247;28;20581;-80
2021/09/24 12:47:29;;;;;;;4.43;2.60;;;26.20;83.90;;;;;;5034780;28;20169;-80
2021/09/24 12:49:56;;;;;;;4.10;3.47;;;26.10;84.20;;;;;;5023112;28;20587;-79
2021/09/24 12:52:25;;;;;;;7.87;4.10;;;26.10;84.50;;;;;;5023693;28;20671;-79
2021/09/24 12:54:51;;;;;;;4.83;3.47;;;26.10;85.00;;;;;;5022109;28;20660;-80